createdAt,value
2018-12-14T00:01:25.607Z,92.60
2018-12-14T00:03:58.746Z,92.70
2018-12-14T00:06:31.686Z,92.60
2018-12-14T00:09:02.691Z,92.40
2018-12-14T00:11:33.541Z,92.60
2018-12-14T00:14:04.556Z,93.10
2018-12-14T00:16:35.421Z,93.30
2018-12-14T00:19:06.351Z,94.20
2018-12-14T00:21:37.171Z,94.60
2018-12-14T00:24:08.033Z,94.60
2018-12-14T00:26:38.856Z,94.20
2018-12-14T00:29:10.213Z,93.50
2018-12-14T00:31:41.232Z,92.60
2018-12-14T00:34:12.291Z,94.50
2018-12-14T00:36:43.112Z,95.00
2018-12-14T00:39:14.007Z,94.20
2018-12-14T00:41:44.762Z,94.50
2018-12-14T00:44:15.562Z,94.50
2018-12-14T00:46:46.361Z,94.60
2018-12-14T00:49:23.571Z,94.40
2018-12-14T00:51:54.322Z,94.10
2018-12-14T00:54:25.101Z,93.80
2018-12-14T00:56:55.773Z,93.80
2018-12-14T00:59:27.461Z,93.70
2018-12-14T01:01:58.406Z,93.90
2018-12-14T01:04:29.421Z,93.70
2018-12-14T01:07:00.053Z,93.90
2018-12-14T01:09:30.806Z,93.70
2018-12-14T01:12:01.502Z,93.40
2018-12-14T01:14:32.236Z,93.10
2018-12-14T01:17:02.911Z,93.00
2018-12-14T01:19:33.817Z,92.80
2018-12-14T01:22:04.636Z,93.40
2018-12-14T01:24:35.396Z,93.30
2018-12-14T01:27:06.461Z,94.00
2018-12-14T01:29:37.731Z,93.30
2018-12-14T01:32:07.966Z,93.40
2018-12-14T01:34:38.941Z,93.60
2018-12-14T01:37:09.886Z,93.90
2018-12-14T01:39:40.846Z,94.10
2018-12-14T01:42:11.646Z,94.30
2018-12-14T01:44:42.708Z,94.70
2018-12-14T01:47:13.550Z,94.50
2018-12-14T01:49:44.541Z,94.80
2018-12-14T01:52:15.402Z,95.30
2018-12-14T01:54:46.491Z,96.20
2018-12-14T01:57:17.671Z,97.20
2018-12-14T01:59:48.591Z,96.80
2018-12-14T02:02:19.407Z,96.60
2018-12-14T02:04:50.426Z,97.00
2018-12-14T02:07:21.111Z,97.20
2018-12-14T02:09:51.971Z,97.50
2018-12-14T02:12:22.653Z,97.70
2018-12-14T02:14:53.441Z,98.00
2018-12-14T02:17:24.236Z,97.90
2018-12-14T02:19:55.071Z,98.00
2018-12-14T02:22:25.886Z,98.10
2018-12-14T02:24:56.696Z,98.30
2018-12-14T02:27:27.476Z,97.90
2018-12-14T02:29:59.475Z,98.20
2018-12-14T02:32:30.296Z,98.40
2018-12-14T02:35:01.271Z,98.40
2018-12-14T02:37:32.221Z,98.50
2018-12-14T02:40:03.147Z,98.60
2018-12-14T02:42:34.010Z,98.70
2018-12-14T02:45:05.087Z,98.40
2018-12-14T02:47:36.086Z,98.40
2018-12-14T02:50:08.105Z,98.90
2018-12-14T02:52:39.060Z,98.40
2018-12-14T02:55:10.356Z,98.20
2018-12-14T02:57:41.071Z,98.10
2018-12-14T03:00:11.891Z,98.10
2018-12-14T03:02:44.863Z,98.10
2018-12-14T03:05:15.852Z,98.30
2018-12-14T03:07:46.601Z,98.10
2018-12-14T03:10:17.351Z,98.10
2018-12-14T03:12:48.061Z,98.00
2018-12-14T03:15:18.827Z,97.90
2018-12-14T03:17:49.561Z,97.80
2018-12-14T03:20:20.471Z,97.90
2018-12-14T03:22:51.183Z,97.90
2018-12-14T03:25:21.872Z,98.00
2018-12-14T03:27:52.646Z,98.00
2018-12-14T03:30:23.863Z,98.10
2018-12-14T03:32:54.576Z,97.70
2018-12-14T03:35:25.430Z,98.10
2018-12-14T03:37:56.083Z,98.10
2018-12-14T03:40:26.907Z,98.30
2018-12-14T03:42:57.667Z,98.30
2018-12-14T03:45:28.313Z,98.00
2018-12-14T03:47:59.017Z,97.90
2018-12-14T03:50:30.742Z,97.60
2018-12-14T03:53:01.514Z,97.80
2018-12-14T03:55:32.473Z,98.40
2018-12-14T03:58:03.243Z,98.20
2018-12-14T04:00:33.992Z,97.90
2018-12-14T04:03:04.811Z,97.90
2018-12-14T04:05:36.192Z,98.00
2018-12-14T04:08:06.903Z,98.00
2018-12-14T04:10:37.582Z,97.90
2018-12-14T04:13:08.308Z,98.20
2018-12-14T04:15:39.248Z,98.50
2018-12-14T04:18:10.358Z,98.70
2018-12-14T04:20:42.095Z,98.60
2018-12-14T04:23:13.372Z,98.50
2018-12-14T04:25:44.578Z,98.40
2018-12-14T04:28:18.314Z,98.40
2018-12-14T04:30:49.688Z,97.80
2018-12-14T04:33:20.519Z,97.70
2018-12-14T04:35:51.649Z,97.60
2018-12-14T04:38:24.556Z,97.70
2018-12-14T04:40:55.437Z,97.60
2018-12-14T04:43:26.374Z,97.70
2018-12-14T04:45:57.435Z,97.40
2018-12-14T04:48:28.312Z,97.70
2018-12-14T04:50:59.283Z,98.30
2018-12-14T04:53:30.098Z,98.60
2018-12-14T04:56:01.077Z,98.10
2018-12-14T04:58:32.009Z,98.40
2018-12-14T05:01:02.869Z,98.40
2018-12-14T05:03:33.751Z,98.50
2018-12-14T05:06:04.723Z,98.70
2018-12-14T05:08:35.617Z,98.60
2018-12-14T05:11:06.548Z,98.50
2018-12-14T05:13:37.332Z,98.20
2018-12-14T05:16:08.200Z,98.00
2018-12-14T05:18:38.942Z,97.90
2018-12-14T05:21:09.818Z,97.80
2018-12-14T05:23:40.672Z,97.70
2018-12-14T05:26:11.657Z,97.70
2018-12-14T05:28:42.427Z,97.70
2018-12-14T05:31:13.715Z,97.70
2018-12-14T05:33:44.597Z,97.50
2018-12-14T05:36:15.767Z,97.40
2018-12-14T05:38:47.632Z,97.40
2018-12-14T05:41:18.408Z,97.20
2018-12-14T05:43:49.327Z,97.20
2018-12-14T05:46:20.168Z,97.20
2018-12-14T05:48:50.973Z,96.90
2018-12-14T05:51:21.952Z,96.70
2018-12-14T05:53:52.888Z,96.50
2018-12-14T05:56:23.988Z,96.50
2018-12-14T05:58:54.828Z,96.40
2018-12-14T06:01:25.634Z,96.10
2018-12-14T06:03:56.913Z,96.10
2018-12-14T06:06:28.038Z,95.90
2018-12-14T06:08:58.848Z,95.50
2018-12-14T06:11:29.705Z,95.10
2018-12-14T06:14:00.687Z,95.40
2018-12-14T06:16:31.567Z,95.50
2018-12-14T06:19:02.312Z,95.40
2018-12-14T06:21:33.873Z,95.00
2018-12-14T06:24:04.714Z,95.00
2018-12-14T06:26:35.908Z,95.00
2018-12-14T06:29:06.782Z,94.80
2018-12-14T06:31:38.023Z,94.50
2018-12-14T06:34:08.884Z,94.60
2018-12-14T06:36:40.552Z,94.20
2018-12-14T06:39:11.557Z,94.20
2018-12-14T06:41:42.822Z,94.00
2018-12-14T06:44:13.867Z,94.50
2018-12-14T06:46:45.022Z,93.70
2018-12-14T06:49:15.910Z,94.10
2018-12-14T06:51:47.023Z,93.60
2018-12-14T06:54:18.222Z,93.50
2018-12-14T06:56:49.456Z,93.30
2018-12-14T06:59:20.443Z,93.30
2018-12-14T07:01:51.602Z,93.60
2018-12-14T07:04:22.812Z,93.70
2018-12-14T07:06:54.097Z,93.60
2018-12-14T07:09:25.044Z,93.30
2018-12-14T07:11:55.952Z,93.50
2018-12-14T07:14:26.924Z,93.40
2018-12-14T07:16:57.954Z,93.80
2018-12-14T07:19:28.794Z,93.90
2018-12-14T07:21:59.747Z,93.20
2018-12-14T07:24:30.567Z,93.10
2018-12-14T07:27:01.753Z,93.10
2018-12-14T07:29:32.654Z,93.40
2018-12-14T07:32:04.027Z,92.60
2018-12-14T07:34:34.864Z,92.90
2018-12-14T07:37:06.317Z,91.90
2018-12-14T07:39:37.196Z,92.90
2018-12-14T07:42:08.152Z,92.90
2018-12-14T07:44:39.139Z,93.20
2018-12-14T07:47:11.836Z,93.70
2018-12-14T07:49:42.767Z,92.80
2018-12-14T07:52:13.688Z,93.50
2018-12-14T07:54:44.587Z,93.20
2018-12-14T07:57:15.577Z,93.00
2018-12-14T07:59:46.386Z,93.50
2018-12-14T08:02:17.462Z,93.00
2018-12-14T08:04:48.407Z,93.20
2018-12-14T08:07:19.515Z,92.80
2018-12-14T08:09:50.443Z,92.90
2018-12-14T08:12:21.537Z,92.70
2018-12-14T08:14:52.848Z,92.80
2018-12-14T08:17:23.813Z,92.70
2018-12-14T08:19:54.748Z,92.70
2018-12-14T08:22:25.689Z,92.00
2018-12-14T08:24:56.487Z,92.30
2018-12-14T08:27:27.562Z,92.20
2018-12-14T08:29:58.388Z,92.90
2018-12-14T08:32:29.862Z,91.70
2018-12-14T08:35:00.770Z,92.00
2018-12-14T08:37:32.172Z,92.30
2018-12-14T08:40:03.097Z,91.90
2018-12-14T08:42:34.246Z,91.70
2018-12-14T08:45:05.353Z,93.00
2018-12-14T08:47:36.602Z,91.90
2018-12-14T08:50:07.789Z,92.50
2018-12-14T08:52:38.871Z,91.80
2018-12-14T08:55:09.728Z,91.60
2018-12-14T08:57:40.779Z,91.50
2018-12-14T09:00:11.732Z,91.00
2018-12-14T09:02:42.859Z,91.70
2018-12-14T09:05:13.658Z,91.60
2018-12-14T09:07:44.878Z,91.20
2018-12-14T09:10:15.978Z,91.20
2018-12-14T09:12:47.173Z,90.90
2018-12-14T09:15:18.003Z,91.50
2018-12-14T09:17:49.048Z,91.20
2018-12-14T09:20:19.903Z,92.30
2018-12-14T09:22:51.018Z,92.50
2018-12-14T09:25:21.903Z,91.90
2018-12-14T09:27:52.778Z,91.70
2018-12-14T09:30:23.673Z,91.60
2018-12-14T09:32:55.105Z,91.10
2018-12-14T09:35:26.014Z,91.90
2018-12-14T09:37:57.073Z,91.80
2018-12-14T09:40:27.893Z,91.40
2018-12-14T09:42:58.743Z,91.70
2018-12-14T09:45:29.574Z,91.30
2018-12-14T09:48:00.653Z,91.60
2018-12-14T09:50:31.415Z,91.20
2018-12-14T09:53:02.213Z,91.60
2018-12-14T09:55:33.008Z,91.10
2018-12-14T09:58:04.898Z,91.30
2018-12-14T10:00:35.773Z,91.20
2018-12-14T10:03:06.768Z,90.70
2018-12-14T10:05:37.883Z,91.90
2018-12-14T10:08:08.907Z,92.40
2018-12-14T10:10:39.924Z,92.00
2018-12-14T10:13:10.762Z,91.60
2018-12-14T10:15:41.656Z,91.90
2018-12-14T10:18:12.604Z,92.00
2018-12-14T10:20:43.397Z,91.10
2018-12-14T10:23:14.192Z,91.80
2018-12-14T10:25:44.959Z,91.80
2018-12-14T10:28:15.927Z,91.40
2018-12-14T10:30:46.752Z,91.10
2018-12-14T10:33:18.107Z,91.00
2018-12-14T10:35:49.093Z,90.70
2018-12-14T10:38:20.283Z,92.10
2018-12-14T10:40:51.064Z,90.50
2018-12-14T10:43:22.092Z,91.30
2018-12-14T10:45:53.237Z,90.00
2018-12-14T10:48:24.297Z,90.70
2018-12-14T10:50:55.042Z,90.80
2018-12-14T10:53:26.103Z,90.80
2018-12-14T10:55:58.227Z,89.10
2018-12-14T10:58:30.333Z,89.00
2018-12-14T11:01:06.147Z,90.10
2018-12-14T11:03:37.204Z,85.20
2018-12-14T11:06:08.307Z,86.90
2018-12-14T11:08:39.502Z,86.20
2018-12-14T11:11:10.882Z,84.00
2018-12-14T11:13:41.807Z,83.10
2018-12-14T11:16:12.637Z,85.60
2018-12-14T11:18:43.572Z,84.70
2018-12-14T11:21:14.302Z,84.20
2018-12-14T11:23:45.667Z,84.10
2018-12-14T11:26:16.942Z,87.60
2018-12-14T11:28:48.207Z,89.20
2018-12-14T11:31:19.226Z,85.70
2018-12-14T11:33:50.842Z,85.10
2018-12-14T11:36:21.872Z,85.70
2018-12-14T11:38:53.358Z,87.10
2018-12-14T11:41:24.487Z,86.90
2018-12-14T11:43:55.708Z,86.20
2018-12-14T11:46:26.892Z,85.10
2018-12-14T11:48:57.838Z,86.40
2018-12-14T11:51:29.081Z,85.10
2018-12-14T11:54:00.191Z,82.30
2018-12-14T11:56:31.298Z,84.50
2018-12-14T11:59:02.242Z,82.10
2018-12-14T12:01:33.367Z,84.60
2018-12-14T12:04:04.222Z,81.20
2018-12-14T12:06:35.008Z,84.10
2018-12-14T12:09:09.712Z,82.50
2018-12-14T12:11:42.032Z,83.10
2018-12-14T12:14:12.926Z,82.20
2018-12-14T12:16:43.692Z,82.80
2018-12-14T12:19:14.598Z,82.20
2018-12-14T12:21:45.572Z,81.50
2018-12-14T12:24:16.954Z,79.20
2018-12-14T12:26:47.872Z,77.60
2018-12-14T12:29:18.802Z,74.10
2018-12-14T12:31:49.802Z,72.80
2018-12-14T12:34:21.292Z,75.10
2018-12-14T12:36:52.302Z,69.60
2018-12-14T12:39:23.532Z,67.90
2018-12-14T12:41:54.418Z,67.50
2018-12-14T12:44:33.284Z,66.70
2018-12-14T12:47:00.296Z,67.20
2018-12-14T12:49:31.192Z,67.90
2018-12-14T12:52:01.992Z,66.80
2018-12-14T12:54:32.937Z,68.40
2018-12-14T12:57:03.841Z,68.30
2018-12-14T12:59:34.966Z,68.10
2018-12-14T13:02:05.867Z,68.80
2018-12-14T13:04:36.991Z,68.90
2018-12-14T13:07:08.176Z,67.80
2018-12-14T13:09:39.452Z,69.20
2018-12-14T13:12:10.436Z,68.20
2018-12-14T13:14:42.077Z,68.10
2018-12-14T13:17:12.851Z,68.60
2018-12-14T13:19:43.907Z,68.00
2018-12-14T13:22:14.798Z,68.00
2018-12-14T13:24:45.836Z,68.60
2018-12-14T13:27:20.339Z,67.30
2018-12-14T13:29:51.532Z,68.80
2018-12-14T13:32:22.311Z,70.50
2018-12-14T13:34:53.674Z,69.60
2018-12-14T13:37:24.477Z,68.40
2018-12-14T13:39:55.706Z,68.10
2018-12-14T13:42:26.501Z,68.60
2018-12-14T13:44:57.864Z,69.00
2018-12-14T13:47:28.789Z,69.10
2018-12-14T13:49:59.828Z,67.10
2018-12-14T13:52:30.632Z,66.80
2018-12-14T13:55:01.371Z,67.50
2018-12-14T13:57:32.226Z,68.30
2018-12-14T14:00:03.377Z,69.90
2018-12-14T14:02:34.211Z,70.90
2018-12-14T14:05:05.152Z,71.90
2018-12-14T14:07:35.951Z,71.00
2018-12-14T14:10:07.791Z,72.50
2018-12-14T14:12:38.717Z,71.60
2018-12-14T14:15:10.518Z,71.80
2018-12-14T14:17:41.441Z,72.30
2018-12-14T14:20:12.411Z,73.00
2018-12-14T14:22:43.331Z,72.70
2018-12-14T14:25:17.470Z,71.90
2018-12-14T14:27:46.986Z,72.10
2018-12-14T14:30:17.867Z,73.30
2018-12-14T14:32:48.813Z,74.00
2018-12-14T14:35:20.401Z,74.00
2018-12-14T14:37:57.258Z,73.90
2018-12-14T14:40:24.502Z,73.10
2018-12-14T14:42:55.291Z,72.80
2018-12-14T14:45:26.236Z,72.90
2018-12-14T14:47:57.231Z,73.10
2018-12-14T14:50:28.112Z,74.80
2018-12-14T14:52:59.077Z,75.70
2018-12-14T14:55:29.953Z,76.50
2018-12-14T14:58:00.761Z,75.90
2018-12-14T15:00:33.562Z,77.20
2018-12-14T15:03:04.827Z,77.20
2018-12-14T15:05:35.717Z,77.60
2018-12-14T15:08:06.621Z,78.70
2018-12-14T15:10:37.572Z,79.20
2018-12-14T15:13:08.528Z,80.20
2018-12-14T15:15:39.348Z,80.20
2018-12-14T15:18:10.252Z,80.50
2018-12-14T15:20:41.116Z,80.90
2018-12-14T15:23:11.893Z,81.40
2018-12-14T15:25:42.832Z,81.60
2018-12-14T15:28:13.676Z,81.80
2018-12-14T15:30:44.722Z,82.50
2018-12-14T15:33:15.482Z,83.00
2018-12-14T15:35:46.707Z,83.40
2018-12-14T15:38:17.383Z,83.70
2018-12-14T15:40:48.497Z,84.00
2018-12-14T15:43:19.337Z,83.80
2018-12-14T15:45:50.266Z,83.80
2018-12-14T15:48:20.998Z,84.50
2018-12-14T15:50:52.163Z,84.20
2018-12-14T15:53:22.908Z,84.40
2018-12-14T15:55:53.712Z,84.40
2018-12-14T15:58:24.631Z,85.30
2018-12-14T16:00:55.581Z,85.40
2018-12-14T16:03:26.262Z,85.50
2018-12-14T16:05:57.111Z,85.80
2018-12-14T16:08:27.886Z,86.20
2018-12-14T16:10:58.771Z,86.20
2018-12-14T16:13:29.537Z,87.00
2018-12-14T16:16:00.334Z,86.50
2018-12-14T16:18:31.212Z,86.60
2018-12-14T16:21:02.292Z,87.30
2018-12-14T16:23:33.233Z,87.40
2018-12-14T16:26:04.187Z,87.40
2018-12-14T16:28:35.082Z,87.40
2018-12-14T16:31:06.156Z,87.80
2018-12-14T16:33:38.287Z,87.60
2018-12-14T16:36:09.830Z,87.70
2018-12-14T16:38:40.931Z,87.80
2018-12-14T16:41:12.192Z,88.20
2018-12-14T16:43:43.188Z,88.00
2018-12-14T16:46:14.318Z,87.90
2018-12-14T16:48:46.087Z,87.80
2018-12-14T16:51:17.127Z,87.70
2018-12-14T16:53:52.882Z,87.90
2018-12-14T16:56:23.951Z,87.70
2018-12-14T16:58:54.807Z,88.00
2018-12-14T17:01:25.813Z,88.00
2018-12-14T17:03:56.762Z,88.90
2018-12-14T17:06:27.924Z,88.90
2018-12-14T17:08:58.823Z,88.90
2018-12-14T17:11:30.333Z,89.00
2018-12-14T17:14:02.940Z,89.10
2018-12-14T17:16:33.914Z,89.40
2018-12-14T17:19:05.279Z,89.20
2018-12-14T17:21:36.673Z,89.20
2018-12-14T17:24:08.357Z,88.80
2018-12-14T17:26:39.633Z,88.80
2018-12-14T17:29:10.713Z,89.20
2018-12-14T17:31:41.728Z,89.20
2018-12-14T17:34:12.528Z,89.50
2018-12-14T17:36:43.868Z,90.00
2018-12-14T17:39:16.292Z,89.80
2018-12-14T17:41:49.513Z,89.90
2018-12-14T17:44:20.315Z,89.90
2018-12-14T17:46:51.683Z,90.10
2018-12-14T17:49:22.518Z,90.20
2018-12-14T17:51:53.673Z,90.40
2018-12-14T17:54:24.889Z,90.20
2018-12-14T17:56:55.833Z,90.40
2018-12-14T17:59:27.024Z,90.40
2018-12-14T18:01:58.348Z,90.30
2018-12-14T18:04:29.558Z,90.50
2018-12-14T18:07:00.478Z,90.60
2018-12-14T18:09:31.385Z,90.70
2018-12-14T18:12:02.468Z,90.40
2018-12-14T18:14:33.508Z,90.60
2018-12-14T18:17:04.808Z,90.50
2018-12-14T18:19:35.493Z,90.60
2018-12-14T18:22:06.308Z,90.50
2018-12-14T18:24:37.153Z,90.80
2018-12-14T18:27:08.058Z,90.40
2018-12-14T18:29:38.945Z,90.30
2018-12-14T18:32:09.883Z,90.50
2018-12-14T18:34:41.073Z,90.40
2018-12-14T18:37:12.175Z,90.40
2018-12-14T18:39:42.978Z,90.40
2018-12-14T18:42:13.983Z,90.30
2018-12-14T18:44:46.349Z,90.40
2018-12-14T18:47:18.133Z,90.60
2018-12-14T18:49:49.327Z,90.80
2018-12-14T18:52:20.275Z,90.80
2018-12-14T18:54:51.108Z,90.80
2018-12-14T18:57:22.261Z,90.90
2018-12-14T18:59:52.994Z,91.00
2018-12-14T19:02:30.583Z,90.90
2018-12-14T19:05:01.822Z,91.00
2018-12-14T19:07:32.903Z,91.00
2018-12-14T19:10:04.649Z,91.10
2018-12-14T19:12:36.223Z,91.10
2018-12-14T19:15:07.693Z,91.30
2018-12-14T19:17:38.893Z,91.40
2018-12-14T19:20:10.288Z,91.40
2018-12-14T19:22:41.533Z,91.30
2018-12-14T19:25:12.448Z,91.60
2018-12-14T19:27:43.493Z,91.50
2018-12-14T19:30:14.743Z,91.40
2018-12-14T19:32:45.654Z,91.40
2018-12-14T19:35:16.538Z,91.60
2018-12-14T19:37:47.989Z,91.70
2018-12-14T19:40:18.888Z,91.70
2018-12-14T19:42:50.608Z,92.00
2018-12-14T19:45:21.448Z,91.60
2018-12-14T19:47:52.468Z,91.60
2018-12-14T19:50:23.908Z,91.80
2018-12-14T19:52:55.085Z,91.80
2018-12-14T19:55:25.939Z,91.80
2018-12-14T19:57:56.953Z,91.80
2018-12-14T20:00:27.798Z,91.80
2018-12-14T20:02:58.813Z,91.80
2018-12-14T20:05:29.701Z,92.00
2018-12-14T20:08:00.688Z,92.30
2018-12-14T20:10:31.798Z,92.10
2018-12-14T20:13:02.828Z,92.10
2018-12-14T20:15:34.223Z,92.20
2018-12-14T20:18:05.279Z,92.20
2018-12-14T20:20:36.389Z,92.70
2018-12-14T20:23:07.809Z,92.20
2018-12-14T20:25:38.913Z,92.20
2018-12-14T20:28:10.753Z,92.20
2018-12-14T20:30:41.653Z,92.30
2018-12-14T20:33:13.502Z,92.30
2018-12-14T20:35:44.483Z,92.40
2018-12-14T20:38:16.665Z,92.40
2018-12-14T20:40:47.583Z,92.40
2018-12-14T20:43:18.913Z,92.50
2018-12-14T20:45:50.593Z,92.40
2018-12-14T20:48:21.933Z,92.50
2018-12-14T20:50:53.319Z,92.50
2018-12-14T20:53:25.382Z,92.20
2018-12-14T20:55:57.568Z,92.30
2018-12-14T20:58:28.548Z,92.50
2018-12-14T21:01:01.043Z,92.60
2018-12-14T21:03:32.268Z,92.40
2018-12-14T21:06:03.203Z,92.50
2018-12-14T21:08:34.633Z,92.40
2018-12-14T21:11:05.729Z,92.50
2018-12-14T21:13:37.308Z,92.50
2018-12-14T21:16:08.223Z,92.60
2018-12-14T21:18:39.823Z,92.70
2018-12-14T21:21:10.663Z,92.80
2018-12-14T21:23:42.037Z,93.00
2018-12-14T21:26:13.809Z,93.00
2018-12-14T21:28:45.752Z,93.10
2018-12-14T21:31:18.283Z,93.10
2018-12-14T21:33:49.288Z,93.10
2018-12-14T21:36:20.043Z,93.10
2018-12-14T21:38:52.387Z,93.20
2018-12-14T21:41:23.203Z,93.30
2018-12-14T21:43:54.467Z,93.20
2018-12-14T21:46:32.411Z,93.40
2018-12-14T21:48:59.077Z,93.50
2018-12-14T21:51:30.018Z,93.70
2018-12-14T21:54:02.375Z,93.50
2018-12-14T21:56:33.717Z,93.40
2018-12-14T21:59:04.793Z,93.50
2018-12-14T22:01:36.528Z,93.50
2018-12-14T22:04:07.788Z,93.50
2018-12-14T22:06:38.542Z,93.40
2018-12-14T22:09:11.448Z,93.30
2018-12-14T22:11:42.383Z,93.20
2018-12-14T22:14:14.498Z,93.30
2018-12-14T22:16:45.948Z,93.20
2018-12-14T22:19:17.222Z,93.10
2018-12-14T22:21:48.143Z,93.30
2018-12-14T22:24:19.958Z,93.10
2018-12-14T22:26:51.948Z,92.90
2018-12-14T22:29:24.973Z,93.00
2018-12-14T22:31:56.373Z,93.10
2018-12-14T22:34:28.733Z,92.90
2018-12-14T22:36:59.822Z,92.80
2018-12-14T22:39:32.173Z,92.80
2018-12-14T22:42:03.403Z,92.50
2018-12-14T22:44:34.563Z,92.30
2018-12-14T22:47:05.405Z,92.00
2018-12-14T22:49:36.377Z,92.10
2018-12-14T22:52:07.127Z,92.20
2018-12-14T22:54:38.086Z,92.00
2018-12-14T22:57:08.893Z,91.90
2018-12-14T22:59:39.801Z,91.60
2018-12-14T23:02:10.613Z,92.00
2018-12-14T23:04:41.630Z,92.10
2018-12-14T23:07:12.473Z,92.00
2018-12-14T23:09:43.398Z,91.90
2018-12-14T23:12:14.230Z,92.10
2018-12-14T23:14:45.247Z,91.90
2018-12-14T23:17:16.048Z,91.60
2018-12-14T23:19:46.948Z,91.70
2018-12-14T23:22:17.748Z,91.70
2018-12-14T23:24:48.648Z,91.80
2018-12-14T23:27:19.503Z,91.90
2018-12-14T23:29:50.417Z,91.90
2018-12-14T23:32:21.247Z,91.80
2018-12-14T23:34:52.092Z,91.80
2018-12-14T23:37:22.824Z,92.00
2018-12-14T23:39:54.893Z,91.80
2018-12-14T23:42:25.607Z,91.80
2018-12-14T23:44:56.632Z,91.70
2018-12-14T23:47:27.452Z,91.70
2018-12-14T23:49:58.158Z,91.60
2018-12-14T23:52:29.056Z,91.60
2018-12-14T23:54:59.943Z,91.40
2018-12-14T23:57:30.748Z,91.10
